sensor_id;sensor_type;location;lat;lon;timestamp;temperature;humidity
34147;DHT22;20423;49.448;9.056;2023-11-19T00:00:30;5.90;99.90
34147;DHT22;20423;49.448;9.056;2023-11-19T00:02:55;5.90;99.90
34147;DHT22;20423;49.448;9.056;2023-11-19T00:05:21;6.00;99.90
34147;DHT22;20423;49.448;9.056;2023-11-19T00:07:47;6.00;99.90
34147;DHT22;20423;49.448;9.056;2023-11-19T00:10:16;6.00;99.90
34147;DHT22;20423;49.448;9.056;2023-11-19T00:12:47;6.00;99.90
34147;DHT22;20423;49.448;9.056;2023-11-19T00:15:15;6.00;99.90
34147;DHT22;20423;49.448;9.056;2023-11-19T00:17:42;6.00;99.90
34147;DHT22;20423;49.448;9.056;2023-11-19T00:20:15;6.00;99.90
34147;DHT22;20423;49.448;9.056;2023-11-19T00:22:42;6.10;99.90
34147;DHT22;20423;49.448;9.056;2023-11-19T00:25:08;6.10;99.90
34147;DHT22;20423;49.448;9.056;2023-11-19T00:27:35;6.10;99.90
34147;DHT22;20423;49.448;9.056;2023-11-19T00:30:01;6.20;99.90
34147;DHT22;20423;49.448;9.056;2023-11-19T00:32:27;6.20;99.90
34147;DHT22;20423;49.448;9.056;2023-11-19T00:34:52;6.20;99.90
34147;DHT22;20423;49.448;9.056;2023-11-19T00:37:18;6.20;99.90
34147;DHT22;20423;49.448;9.056;2023-11-19T00:39:44;6.20;99.90
34147;DHT22;20423;49.448;9.056;2023-11-19T00:42:11;6.20;99.90
34147;DHT22;20423;49.448;9.056;2023-11-19T00:44:37;6.20;99.90
34147;DHT22;20423;49.448;9.056;2023-11-19T00:47:03;6.20;99.90
34147;DHT22;20423;49.448;9.056;2023-11-19T00:49:30;6.20;99.90
34147;DHT22;20423;49.448;9.056;2023-11-19T00:51:58;6.20;99.90
34147;DHT22;20423;49.448;9.056;2023-11-19T00:54:24;6.20;99.90
34147;DHT22;20423;49.448;9.056;2023-11-19T00:56:54;6.20;99.90
34147;DHT22;20423;49.448;9.056;2023-11-19T00:59:21;6.20;99.90
34147;DHT22;20423;49.448;9.056;2023-11-19T01:01:47;6.20;99.90
34147;DHT22;20423;49.448;9.056;2023-11-19T01:04:17;6.30;99.90
34147;DHT22;20423;49.448;9.056;2023-11-19T01:06:43;6.30;99.90
34147;DHT22;20423;49.448;9.056;2023-11-19T01:09:09;6.30;99.90
34147;DHT22;20423;49.448;9.056;2023-11-19T01:11:35;6.30;99.90
34147;DHT22;20423;49.448;9.056;2023-11-19T01:14:00;6.30;99.90
34147;DHT22;20423;49.448;9.056;2023-11-19T01:16:27;6.30;99.90
34147;DHT22;20423;49.448;9.056;2023-11-19T01:18:53;6.30;99.90
34147;DHT22;20423;49.448;9.056;2023-11-19T01:21:18;6.30;99.90
34147;DHT22;20423;49.448;9.056;2023-11-19T01:23:44;6.30;99.90
34147;DHT22;20423;49.448;9.056;2023-11-19T01:26:11;6.30;99.90
34147;DHT22;20423;49.448;9.056;2023-11-19T01:28:41;6.30;99.90
34147;DHT22;20423;49.448;9.056;2023-11-19T01:31:15;6.30;99.90
34147;DHT22;20423;49.448;9.056;2023-11-19T01:33:41;6.30;99.90
34147;DHT22;20423;49.448;9.056;2023-11-19T01:36:12;6.30;99.90
34147;DHT22;20423;49.448;9.056;2023-11-19T01:38:38;6.40;99.90
34147;DHT22;20423;49.448;9.056;2023-11-19T01:41:04;6.40;99.90
34147;DHT22;20423;49.448;9.056;2023-11-19T01:43:36;6.50;99.90
34147;DHT22;20423;49.448;9.056;2023-11-19T01:46:04;6.50;99.90
34147;DHT22;20423;49.448;9.056;2023-11-19T01:48:31;6.50;99.90
34147;DHT22;20423;49.448;9.056;2023-11-19T01:50:58;6.60;99.90
34147;DHT22;20423;49.448;9.056;2023-11-19T01:53:25;6.70;99.90
34147;DHT22;20423;49.448;9.056;2023-11-19T01:55:51;6.70;99.90
34147;DHT22;20423;49.448;9.056;2023-11-19T01:58:18;6.80;99.90
34147;DHT22;20423;49.448;9.056;2023-11-19T02:00:45;6.80;99.90
34147;DHT22;20423;49.448;9.056;2023-11-19T02:03:11;6.80;99.90
34147;DHT22;20423;49.448;9.056;2023-11-19T02:05:37;6.90;99.90
34147;DHT22;20423;49.448;9.056;2023-11-19T02:08:04;6.90;99.90
34147;DHT22;20423;49.448;9.056;2023-11-19T02:10:30;6.90;99.90
34147;DHT22;20423;49.448;9.056;2023-11-19T02:12:58;7.00;99.90
34147;DHT22;20423;49.448;9.056;2023-11-19T02:15:24;7.10;99.90
34147;DHT22;20423;49.448;9.056;2023-11-19T02:17:50;7.10;99.90
34147;DHT22;20423;49.448;9.056;2023-11-19T02:20:22;7.10;99.90
34147;DHT22;20423;49.448;9.056;2023-11-19T02:22:50;7.10;99.90
34147;DHT22;20423;49.448;9.056;2023-11-19T02:25:28;7.10;99.90
34147;DHT22;20423;49.448;9.056;2023-11-19T02:27:57;7.20;99.90
34147;DHT22;20423;49.448;9.056;2023-11-19T02:30:24;7.20;99.90
34147;DHT22;20423;49.448;9.056;2023-11-19T02:32:56;7.20;99.90
34147;DHT22;20423;49.448;9.056;2023-11-19T02:35:44;7.20;99.90
34147;DHT22;20423;49.448;9.056;2023-11-19T02:38:10;7.20;99.90
34147;DHT22;20423;49.448;9.056;2023-11-19T02:40:36;7.20;99.90
34147;DHT22;20423;49.448;9.056;2023-11-19T02:43:02;7.20;99.90
34147;DHT22;20423;49.448;9.056;2023-11-19T02:45:30;7.30;99.90
34147;DHT22;20423;49.448;9.056;2023-11-19T02:47:56;7.20;99.90
34147;DHT22;20423;49.448;9.056;2023-11-19T02:50:22;7.30;99.90
34147;DHT22;20423;49.448;9.056;2023-11-19T02:52:53;7.30;99.90
34147;DHT22;20423;49.448;9.056;2023-11-19T02:55:19;7.30;99.90
34147;DHT22;20423;49.448;9.056;2023-11-19T02:57:45;7.30;99.90
34147;DHT22;20423;49.448;9.056;2023-11-19T03:00:21;7.30;99.90
34147;DHT22;20423;49.448;9.056;2023-11-19T03:02:51;7.30;99.90
34147;DHT22;20423;49.448;9.056;2023-11-19T03:05:35;7.40;99.90
34147;DHT22;20423;49.448;9.056;2023-11-19T03:08:01;7.40;99.90
34147;DHT22;20423;49.448;9.056;2023-11-19T03:10:27;7.40;99.90
34147;DHT22;20423;49.448;9.056;2023-11-19T03:12:54;7.40;99.90
34147;DHT22;20423;49.448;9.056;2023-11-19T03:15:22;7.40;99.90
34147;DHT22;20423;49.448;9.056;2023-11-19T03:17:48;7.50;99.90
34147;DHT22;20423;49.448;9.056;2023-11-19T03:20:13;7.50;99.90
34147;DHT22;20423;49.448;9.056;2023-11-19T03:22:42;7.50;99.90
34147;DHT22;20423;49.448;9.056;2023-11-19T03:25:08;7.50;99.90
34147;DHT22;20423;49.448;9.056;2023-11-19T03:27:35;7.50;99.90
34147;DHT22;20423;49.448;9.056;2023-11-19T03:30:02;7.60;99.90
34147;DHT22;20423;49.448;9.056;2023-11-19T03:32:31;7.60;99.90
34147;DHT22;20423;49.448;9.056;2023-11-19T03:34:58;7.60;99.90
34147;DHT22;20423;49.448;9.056;2023-11-19T03:37:25;7.60;99.90
34147;DHT22;20423;49.448;9.056;2023-11-19T03:39:51;7.60;99.90
34147;DHT22;20423;49.448;9.056;2023-11-19T03:42:19;7.60;99.90
34147;DHT22;20423;49.448;9.056;2023-11-19T03:44:46;7.70;99.90
34147;DHT22;20423;49.448;9.056;2023-11-19T03:47:12;7.70;99.90
34147;DHT22;20423;49.448;9.056;2023-11-19T03:50:12;7.70;99.90
34147;DHT22;20423;49.448;9.056;2023-11-19T03:52:50;7.70;99.90
34147;DHT22;20423;49.448;9.056;2023-11-19T03:55:16;7.70;99.90
34147;DHT22;20423;49.448;9.056;2023-11-19T03:57:41;7.70;99.90
34147;DHT22;20423;49.448;9.056;2023-11-19T04:00:08;7.80;99.90
34147;DHT22;20423;49.448;9.056;2023-11-19T04:02:38;7.80;99.90
34147;DHT22;20423;49.448;9.056;2023-11-19T04:05:10;7.80;99.90
34147;DHT22;20423;49.448;9.056;2023-11-19T04:07:36;7.80;99.90
34147;DHT22;20423;49.448;9.056;2023-11-19T04:10:02;7.90;99.90
34147;DHT22;20423;49.448;9.056;2023-11-19T04:12:27;7.90;99.90
34147;DHT22;20423;49.448;9.056;2023-11-19T04:14:53;7.90;99.90
34147;DHT22;20423;49.448;9.056;2023-11-19T04:17:44;7.90;99.90
34147;DHT22;20423;49.448;9.056;2023-11-19T04:20:10;7.90;99.90
34147;DHT22;20423;49.448;9.056;2023-11-19T04:22:38;8.00;99.90
34147;DHT22;20423;49.448;9.056;2023-11-19T04:25:04;8.00;99.90
34147;DHT22;20423;49.448;9.056;2023-11-19T04:27:30;8.00;99.90
34147;DHT22;20423;49.448;9.056;2023-11-19T04:30:08;8.00;99.90
34147;DHT22;20423;49.448;9.056;2023-11-19T04:32:36;8.00;99.90
34147;DHT22;20423;49.448;9.056;2023-11-19T04:35:03;8.10;99.90
34147;DHT22;20423;49.448;9.056;2023-11-19T04:37:28;8.10;99.90
34147;DHT22;20423;49.448;9.056;2023-11-19T04:39:54;8.10;99.90
34147;DHT22;20423;49.448;9.056;2023-11-19T04:42:22;8.10;99.90
34147;DHT22;20423;49.448;9.056;2023-11-19T04:44:48;8.10;99.90
34147;DHT22;20423;49.448;9.056;2023-11-19T04:47:13;8.20;99.90
34147;DHT22;20423;49.448;9.056;2023-11-19T04:49:43;8.20;99.90
34147;DHT22;20423;49.448;9.056;2023-11-19T04:52:09;8.20;99.90
34147;DHT22;20423;49.448;9.056;2023-11-19T04:54:35;8.20;99.90
34147;DHT22;20423;49.448;9.056;2023-11-19T04:57:00;8.20;99.90
34147;DHT22;20423;49.448;9.056;2023-11-19T04:59:26;8.20;99.90
34147;DHT22;20423;49.448;9.056;2023-11-19T05:01:53;8.20;99.90
34147;DHT22;20423;49.448;9.056;2023-11-19T05:04:18;8.20;99.90
34147;DHT22;20423;49.448;9.056;2023-11-19T05:06:44;8.30;99.90
34147;DHT22;20423;49.448;9.056;2023-11-19T05:09:10;8.30;99.90
34147;DHT22;20423;49.448;9.056;2023-11-19T05:11:38;8.30;99.90
34147;DHT22;20423;49.448;9.056;2023-11-19T05:14:05;8.30;99.90
34147;DHT22;20423;49.448;9.056;2023-11-19T05:16:30;8.30;99.90
34147;DHT22;20423;49.448;9.056;2023-11-19T05:18:56;8.40;99.90
34147;DHT22;20423;49.448;9.056;2023-11-19T05:21:25;8.40;99.90
34147;DHT22;20423;49.448;9.056;2023-11-19T05:23:51;8.40;99.90
34147;DHT22;20423;49.448;9.056;2023-11-19T05:26:20;8.40;99.90
34147;DHT22;20423;49.448;9.056;2023-11-19T05:28:47;8.40;99.90
34147;DHT22;20423;49.448;9.056;2023-11-19T05:31:13;8.50;99.90
34147;DHT22;20423;49.448;9.056;2023-11-19T05:33:39;8.50;99.90
34147;DHT22;20423;49.448;9.056;2023-11-19T05:36:05;8.50;99.90
34147;DHT22;20423;49.448;9.056;2023-11-19T05:38:31;8.50;99.90
34147;DHT22;20423;49.448;9.056;2023-11-19T05:40:56;8.50;99.90
34147;DHT22;20423;49.448;9.056;2023-11-19T05:43:22;8.60;99.90
34147;DHT22;20423;49.448;9.056;2023-11-19T05:45:48;8.60;99.90
34147;DHT22;20423;49.448;9.056;2023-11-19T05:48:13;8.60;99.90
34147;DHT22;20423;49.448;9.056;2023-11-19T05:50:39;8.60;99.90
34147;DHT22;20423;49.448;9.056;2023-11-19T05:53:05;8.70;99.90
34147;DHT22;20423;49.448;9.056;2023-11-19T05:55:38;8.70;99.90
34147;DHT22;20423;49.448;9.056;2023-11-19T05:58:12;8.70;99.90
34147;DHT22;20423;49.448;9.056;2023-11-19T06:00:41;8.70;99.90
34147;DHT22;20423;49.448;9.056;2023-11-19T06:03:07;8.70;99.90
34147;DHT22;20423;49.448;9.056;2023-11-19T06:05:33;8.70;99.90
34147;DHT22;20423;49.448;9.056;2023-11-19T06:07:59;8.80;99.90
34147;DHT22;20423;49.448;9.056;2023-11-19T06:10:25;8.80;99.90
34147;DHT22;20423;49.448;9.056;2023-11-19T06:12:59;8.80;99.90
34147;DHT22;20423;49.448;9.056;2023-11-19T06:15:26;8.80;99.90
34147;DHT22;20423;49.448;9.056;2023-11-19T06:17:53;8.80;99.90
34147;DHT22;20423;49.448;9.056;2023-11-19T06:20:20;8.80;99.90
34147;DHT22;20423;49.448;9.056;2023-11-19T06:22:46;8.80;99.90
34147;DHT22;20423;49.448;9.056;2023-11-19T06:25:12;8.80;99.90
34147;DHT22;20423;49.448;9.056;2023-11-19T06:27:42;8.90;99.90
34147;DHT22;20423;49.448;9.056;2023-11-19T06:30:08;8.80;99.90
34147;DHT22;20423;49.448;9.056;2023-11-19T06:32:35;8.80;99.90
34147;DHT22;20423;49.448;9.056;2023-11-19T06:35:01;8.80;99.90
34147;DHT22;20423;49.448;9.056;2023-11-19T06:37:30;8.90;99.90
34147;DHT22;20423;49.448;9.056;2023-11-19T06:39:55;8.90;99.90
34147;DHT22;20423;49.448;9.056;2023-11-19T06:42:21;8.90;99.90
34147;DHT22;20423;49.448;9.056;2023-11-19T06:44:47;9.00;99.90
34147;DHT22;20423;49.448;9.056;2023-11-19T06:47:13;9.00;99.90
34147;DHT22;20423;49.448;9.056;2023-11-19T06:49:39;9.00;99.90
34147;DHT22;20423;49.448;9.056;2023-11-19T06:52:04;9.00;99.90
34147;DHT22;20423;49.448;9.056;2023-11-19T06:54:30;9.00;99.90
34147;DHT22;20423;49.448;9.056;2023-11-19T06:56:56;9.10;99.90
34147;DHT22;20423;49.448;9.056;2023-11-19T06:59:23;9.10;99.90
34147;DHT22;20423;49.448;9.056;2023-11-19T07:01:49;9.10;99.90
34147;DHT22;20423;49.448;9.056;2023-11-19T07:04:14;9.10;99.90
34147;DHT22;20423;49.448;9.056;2023-11-19T07:06:40;9.10;99.90
34147;DHT22;20423;49.448;9.056;2023-11-19T07:09:07;9.20;99.90
34147;DHT22;20423;49.448;9.056;2023-11-19T07:11:39;9.10;99.90
34147;DHT22;20423;49.448;9.056;2023-11-19T07:14:05;9.20;99.90
34147;DHT22;20423;49.448;9.056;2023-11-19T07:16:35;9.20;99.90
34147;DHT22;20423;49.448;9.056;2023-11-19T07:19:03;9.20;99.90
34147;DHT22;20423;49.448;9.056;2023-11-19T07:21:31;9.30;99.90
34147;DHT22;20423;49.448;9.056;2023-11-19T07:23:58;9.30;99.90
34147;DHT22;20423;49.448;9.056;2023-11-19T07:26:24;9.30;99.90
34147;DHT22;20423;49.448;9.056;2023-11-19T07:28:50;9.40;99.90
34147;DHT22;20423;49.448;9.056;2023-11-19T07:31:16;9.40;99.90
34147;DHT22;20423;49.448;9.056;2023-11-19T07:33:46;9.40;99.90
34147;DHT22;20423;49.448;9.056;2023-11-19T07:36:13;9.50;99.90
34147;DHT22;20423;49.448;9.056;2023-11-19T07:38:38;9.50;99.90
34147;DHT22;20423;49.448;9.056;2023-11-19T07:41:08;9.50;99.90
34147;DHT22;20423;49.448;9.056;2023-11-19T07:43:39;9.50;99.90
34147;DHT22;20423;49.448;9.056;2023-11-19T07:46:06;9.60;99.90
34147;DHT22;20423;49.448;9.056;2023-11-19T07:48:35;9.60;99.90
34147;DHT22;20423;49.448;9.056;2023-11-19T07:51:01;9.60;99.90
34147;DHT22;20423;49.448;9.056;2023-11-19T07:53:27;9.60;99.90
34147;DHT22;20423;49.448;9.056;2023-11-19T07:55:53;9.60;99.90
34147;DHT22;20423;49.448;9.056;2023-11-19T07:58:19;9.60;99.90
34147;DHT22;20423;49.448;9.056;2023-11-19T08:00:45;9.60;99.90
34147;DHT22;20423;49.448;9.056;2023-11-19T08:03:10;9.60;99.90
34147;DHT22;20423;49.448;9.056;2023-11-19T08:05:36;9.60;99.90
34147;DHT22;20423;49.448;9.056;2023-11-19T08:08:02;9.60;99.90
34147;DHT22;20423;49.448;9.056;2023-11-19T08:10:28;9.60;99.90
34147;DHT22;20423;49.448;9.056;2023-11-19T08:12:54;9.60;99.90
34147;DHT22;20423;49.448;9.056;2023-11-19T08:15:20;9.60;99.90
34147;DHT22;20423;49.448;9.056;2023-11-19T08:17:46;9.60;99.90
34147;DHT22;20423;49.448;9.056;2023-11-19T08:20:12;9.60;99.90
34147;DHT22;20423;49.448;9.056;2023-11-19T08:22:39;9.60;99.90
34147;DHT22;20423;49.448;9.056;2023-11-19T08:25:08;9.60;99.90
34147;DHT22;20423;49.448;9.056;2023-11-19T08:27:34;9.60;99.90
34147;DHT22;20423;49.448;9.056;2023-11-19T08:29:59;9.60;99.90
34147;DHT22;20423;49.448;9.056;2023-11-19T08:32:26;9.60;99.90
34147;DHT22;20423;49.448;9.056;2023-11-19T08:34:52;9.70;99.90
34147;DHT22;20423;49.448;9.056;2023-11-19T08:37:19;9.70;99.90
34147;DHT22;20423;49.448;9.056;2023-11-19T08:39:50;9.70;99.90
34147;DHT22;20423;49.448;9.056;2023-11-19T08:42:19;9.70;99.90
34147;DHT22;20423;49.448;9.056;2023-11-19T08:44:49;9.70;99.90
34147;DHT22;20423;49.448;9.056;2023-11-19T08:47:16;9.70;99.90
34147;DHT22;20423;49.448;9.056;2023-11-19T08:49:45;9.70;99.90
34147;DHT22;20423;49.448;9.056;2023-11-19T08:52:11;9.70;99.90
34147;DHT22;20423;49.448;9.056;2023-11-19T08:54:37;9.80;99.90
34147;DHT22;20423;49.448;9.056;2023-11-19T08:57:03;9.80;99.90
34147;DHT22;20423;49.448;9.056;2023-11-19T08:59:30;9.80;99.90
34147;DHT22;20423;49.448;9.056;2023-11-19T09:01:55;9.80;99.90
34147;DHT22;20423;49.448;9.056;2023-11-19T09:04:21;9.90;99.90
34147;DHT22;20423;49.448;9.056;2023-11-19T09:06:50;9.90;99.90
34147;DHT22;20423;49.448;9.056;2023-11-19T09:09:16;9.90;99.90
34147;DHT22;20423;49.448;9.056;2023-11-19T09:11:41;9.90;99.90
34147;DHT22;20423;49.448;9.056;2023-11-19T09:14:16;9.90;99.90
34147;DHT22;20423;49.448;9.056;2023-11-19T09:16:43;10.00;99.90
34147;DHT22;20423;49.448;9.056;2023-11-19T09:19:09;10.10;99.90
34147;DHT22;20423;49.448;9.056;2023-11-19T09:21:35;10.10;99.90
34147;DHT22;20423;49.448;9.056;2023-11-19T09:24:04;10.10;99.90
34147;DHT22;20423;49.448;9.056;2023-11-19T09:26:30;10.10;99.90
34147;DHT22;20423;49.448;9.056;2023-11-19T09:28:56;10.10;99.90
34147;DHT22;20423;49.448;9.056;2023-11-19T09:31:22;10.30;99.90
34147;DHT22;20423;49.448;9.056;2023-11-19T09:33:53;10.20;99.90
34147;DHT22;20423;49.448;9.056;2023-11-19T09:36:19;10.30;99.90
34147;DHT22;20423;49.448;9.056;2023-11-19T09:38:45;10.30;99.90
34147;DHT22;20423;49.448;9.056;2023-11-19T09:41:11;10.30;99.90
34147;DHT22;20423;49.448;9.056;2023-11-19T09:43:42;10.40;99.90
34147;DHT22;20423;49.448;9.056;2023-11-19T09:46:13;10.40;99.90
34147;DHT22;20423;49.448;9.056;2023-11-19T09:48:40;10.50;99.90
34147;DHT22;20423;49.448;9.056;2023-11-19T09:51:11;10.40;99.90
34147;DHT22;20423;49.448;9.056;2023-11-19T09:53:38;10.60;99.90
34147;DHT22;20423;49.448;9.056;2023-11-19T09:56:04;10.70;99.90
34147;DHT22;20423;49.448;9.056;2023-11-19T09:58:33;10.60;99.90
34147;DHT22;20423;49.448;9.056;2023-11-19T10:01:00;10.80;99.90
34147;DHT22;20423;49.448;9.056;2023-11-19T10:03:35;11.10;99.90
34147;DHT22;20423;49.448;9.056;2023-11-19T10:06:04;11.20;99.90
34147;DHT22;20423;49.448;9.056;2023-11-19T10:08:30;11.30;99.90
34147;DHT22;20423;49.448;9.056;2023-11-19T10:10:55;11.40;99.90
34147;DHT22;20423;49.448;9.056;2023-11-19T10:13:26;11.30;99.90
34147;DHT22;20423;49.448;9.056;2023-11-19T10:15:53;11.20;99.90
34147;DHT22;20423;49.448;9.056;2023-11-19T10:18:18;11.00;99.90
34147;DHT22;20423;49.448;9.056;2023-11-19T10:20:49;10.80;99.90
34147;DHT22;20423;49.448;9.056;2023-11-19T10:23:14;10.70;99.90
34147;DHT22;20423;49.448;9.056;2023-11-19T10:25:40;10.70;99.90
34147;DHT22;20423;49.448;9.056;2023-11-19T10:28:06;10.70;99.90
34147;DHT22;20423;49.448;9.056;2023-11-19T10:30:31;10.60;99.90
34147;DHT22;20423;49.448;9.056;2023-11-19T10:33:06;10.60;99.90
34147;DHT22;20423;49.448;9.056;2023-11-19T10:35:50;10.50;99.90
34147;DHT22;20423;49.448;9.056;2023-11-19T10:38:17;10.40;99.90
34147;DHT22;20423;49.448;9.056;2023-11-19T10:44:31;10.30;99.90
34147;DHT22;20423;49.448;9.056;2023-11-19T10:46:59;10.30;99.90
34147;DHT22;20423;49.448;9.056;2023-11-19T10:49:25;10.30;99.90
34147;DHT22;20423;49.448;9.056;2023-11-19T10:51:51;10.40;99.90
34147;DHT22;20423;49.448;9.056;2023-11-19T10:54:31;10.30;99.90
34147;DHT22;20423;49.448;9.056;2023-11-19T10:56:59;10.50;99.90
34147;DHT22;20423;49.448;9.056;2023-11-19T10:59:30;10.60;99.90
34147;DHT22;20423;49.448;9.056;2023-11-19T11:01:56;10.70;99.90
34147;DHT22;20423;49.448;9.056;2023-11-19T11:04:24;10.80;99.90
34147;DHT22;20423;49.448;9.056;2023-11-19T11:06:54;10.90;99.90
34147;DHT22;20423;49.448;9.056;2023-11-19T11:09:26;11.00;99.90
34147;DHT22;20423;49.448;9.056;2023-11-19T11:11:54;11.00;99.90
34147;DHT22;20423;49.448;9.056;2023-11-19T11:14:24;11.00;99.90
34147;DHT22;20423;49.448;9.056;2023-11-19T11:16:53;11.10;99.90
34147;DHT22;20423;49.448;9.056;2023-11-19T11:19:18;11.30;99.90
34147;DHT22;20423;49.448;9.056;2023-11-19T11:21:49;11.40;99.90
34147;DHT22;20423;49.448;9.056;2023-11-19T11:24:34;11.40;99.90
34147;DHT22;20423;49.448;9.056;2023-11-19T11:32:37;11.20;99.90
34147;DHT22;20423;49.448;9.056;2023-11-19T11:35:17;11.20;99.90
34147;DHT22;20423;49.448;9.056;2023-11-19T11:37:49;11.30;99.90
34147;DHT22;20423;49.448;9.056;2023-11-19T11:40:16;11.30;99.90
34147;DHT22;20423;49.448;9.056;2023-11-19T11:42:44;11.10;99.90
34147;DHT22;20423;49.448;9.056;2023-11-19T11:45:14;11.10;99.90
34147;DHT22;20423;49.448;9.056;2023-11-19T11:50:12;11.10;99.90
34147;DHT22;20423;49.448;9.056;2023-11-19T11:55:37;11.50;99.90
34147;DHT22;20423;49.448;9.056;2023-11-19T11:58:06;11.50;99.90
34147;DHT22;20423;49.448;9.056;2023-11-19T12:00:32;11.40;99.90
34147;DHT22;20423;49.448;9.056;2023-11-19T12:03:05;11.30;99.90
34147;DHT22;20423;49.448;9.056;2023-11-19T12:05:31;11.40;99.90
34147;DHT22;20423;49.448;9.056;2023-11-19T12:08:06;11.40;99.90
34147;DHT22;20423;49.448;9.056;2023-11-19T12:10:46;11.50;99.90
34147;DHT22;20423;49.448;9.056;2023-11-19T12:13:16;11.60;99.90
34147;DHT22;20423;49.448;9.056;2023-11-19T12:18:30;11.40;99.90
34147;DHT22;20423;49.448;9.056;2023-11-19T12:20:57;11.50;99.90
34147;DHT22;20423;49.448;9.056;2023-11-19T12:27:10;11.60;99.90
34147;DHT22;20423;49.448;9.056;2023-11-19T12:29:46;11.80;99.90
34147;DHT22;20423;49.448;9.056;2023-11-19T12:32:12;11.80;99.90
34147;DHT22;20423;49.448;9.056;2023-11-19T12:34:39;11.60;99.90
34147;DHT22;20423;49.448;9.056;2023-11-19T12:37:05;11.30;99.90
34147;DHT22;20423;49.448;9.056;2023-11-19T12:39:31;11.30;99.90
34147;DHT22;20423;49.448;9.056;2023-11-19T12:41:57;11.20;99.90
34147;DHT22;20423;49.448;9.056;2023-11-19T12:44:25;11.20;99.90
34147;DHT22;20423;49.448;9.056;2023-11-19T12:47:07;11.20;99.90
34147;DHT22;20423;49.448;9.056;2023-11-19T12:49:33;11.20;99.90
34147;DHT22;20423;49.448;9.056;2023-11-19T12:51:59;11.20;99.90
34147;DHT22;20423;49.448;9.056;2023-11-19T12:54:35;11.10;99.90
34147;DHT22;20423;49.448;9.056;2023-11-19T12:57:02;11.10;99.90
34147;DHT22;20423;49.448;9.056;2023-11-19T12:59:28;11.10;99.90
34147;DHT22;20423;49.448;9.056;2023-11-19T13:02:03;11.20;99.90
34147;DHT22;20423;49.448;9.056;2023-11-19T13:04:31;11.40;99.90
34147;DHT22;20423;49.448;9.056;2023-11-19T13:06:58;11.50;99.90
34147;DHT22;20423;49.448;9.056;2023-11-19T13:09:25;11.70;99.90
34147;DHT22;20423;49.448;9.056;2023-11-19T13:11:51;11.70;99.90
34147;DHT22;20423;49.448;9.056;2023-11-19T13:14:18;11.80;99.90
34147;DHT22;20423;49.448;9.056;2023-11-19T13:16:44;11.90;99.90
34147;DHT22;20423;49.448;9.056;2023-11-19T13:19:16;11.90;99.90
34147;DHT22;20423;49.448;9.056;2023-11-19T13:21:44;11.80;99.90
34147;DHT22;20423;49.448;9.056;2023-11-19T13:27:59;12.10;99.90
34147;DHT22;20423;49.448;9.056;2023-11-19T13:30:26;12.10;99.90
34147;DHT22;20423;49.448;9.056;2023-11-19T13:36:39;11.80;99.90
34147;DHT22;20423;49.448;9.056;2023-11-19T13:39:05;11.60;99.90
34147;DHT22;20423;49.448;9.056;2023-11-19T13:41:32;11.50;99.90
34147;DHT22;20423;49.448;9.056;2023-11-19T13:43:58;11.50;99.90
34147;DHT22;20423;49.448;9.056;2023-11-19T13:46:24;11.40;99.90
34147;DHT22;20423;49.448;9.056;2023-11-19T13:48:50;11.50;99.90
34147;DHT22;20423;49.448;9.056;2023-11-19T13:51:16;11.50;99.90
34147;DHT22;20423;49.448;9.056;2023-11-19T13:53:42;11.40;99.90
34147;DHT22;20423;49.448;9.056;2023-11-19T13:56:08;11.30;99.90
34147;DHT22;20423;49.448;9.056;2023-11-19T13:58:34;11.30;99.90
34147;DHT22;20423;49.448;9.056;2023-11-19T14:01:00;11.20;99.90
34147;DHT22;20423;49.448;9.056;2023-11-19T14:03:27;11.10;99.90
34147;DHT22;20423;49.448;9.056;2023-11-19T14:05:53;11.00;99.90
34147;DHT22;20423;49.448;9.056;2023-11-19T14:08:23;11.00;99.90
34147;DHT22;20423;49.448;9.056;2023-11-19T14:10:49;10.90;99.90
34147;DHT22;20423;49.448;9.056;2023-11-19T14:13:15;10.90;99.90
34147;DHT22;20423;49.448;9.056;2023-11-19T14:15:41;10.90;99.90
34147;DHT22;20423;49.448;9.056;2023-11-19T14:18:06;10.80;99.90
34147;DHT22;20423;49.448;9.056;2023-11-19T14:20:32;10.70;99.90
34147;DHT22;20423;49.448;9.056;2023-11-19T14:22:58;10.70;99.90
34147;DHT22;20423;49.448;9.056;2023-11-19T14:25:24;10.70;99.90
34147;DHT22;20423;49.448;9.056;2023-11-19T14:27:50;10.60;99.90
34147;DHT22;20423;49.448;9.056;2023-11-19T14:30:16;10.60;99.90
34147;DHT22;20423;49.448;9.056;2023-11-19T14:32:42;10.50;99.90
34147;DHT22;20423;49.448;9.056;2023-11-19T14:35:10;10.50;99.90
34147;DHT22;20423;49.448;9.056;2023-11-19T14:37:36;10.50;99.90
34147;DHT22;20423;49.448;9.056;2023-11-19T14:40:10;10.50;99.90
34147;DHT22;20423;49.448;9.056;2023-11-19T14:42:37;10.50;99.90
34147;DHT22;20423;49.448;9.056;2023-11-19T14:45:40;10.50;99.90
34147;DHT22;20423;49.448;9.056;2023-11-19T14:48:05;10.60;99.90
34147;DHT22;20423;49.448;9.056;2023-11-19T14:50:31;10.50;99.90
34147;DHT22;20423;49.448;9.056;2023-11-19T14:52:57;10.60;99.90
34147;DHT22;20423;49.448;9.056;2023-11-19T14:55:25;10.60;99.90
34147;DHT22;20423;49.448;9.056;2023-11-19T14:57:51;10.50;99.90
34147;DHT22;20423;49.448;9.056;2023-11-19T15:00:17;10.50;99.90
34147;DHT22;20423;49.448;9.056;2023-11-19T15:02:43;10.60;99.90
34147;DHT22;20423;49.448;9.056;2023-11-19T15:05:09;10.60;99.90
34147;DHT22;20423;49.448;9.056;2023-11-19T15:07:38;10.60;99.90
34147;DHT22;20423;49.448;9.056;2023-11-19T15:10:06;10.70;99.90
34147;DHT22;20423;49.448;9.056;2023-11-19T15:12:38;10.70;99.90
34147;DHT22;20423;49.448;9.056;2023-11-19T15:15:10;10.70;99.90
34147;DHT22;20423;49.448;9.056;2023-11-19T15:17:39;10.60;99.90
34147;DHT22;20423;49.448;9.056;2023-11-19T15:20:05;10.60;99.90
34147;DHT22;20423;49.448;9.056;2023-11-19T15:22:33;10.60;99.90
34147;DHT22;20423;49.448;9.056;2023-11-19T15:25:02;10.70;99.90
34147;DHT22;20423;49.448;9.056;2023-11-19T15:27:28;10.70;99.90
34147;DHT22;20423;49.448;9.056;2023-11-19T15:29:54;10.70;99.90
34147;DHT22;20423;49.448;9.056;2023-11-19T15:32:20;10.70;99.90
34147;DHT22;20423;49.448;9.056;2023-11-19T15:34:46;10.70;99.90
34147;DHT22;20423;49.448;9.056;2023-11-19T15:37:36;10.70;99.90
34147;DHT22;20423;49.448;9.056;2023-11-19T15:40:07;10.70;99.90
34147;DHT22;20423;49.448;9.056;2023-11-19T15:42:34;10.60;99.90
34147;DHT22;20423;49.448;9.056;2023-11-19T15:45:00;10.70;99.90
34147;DHT22;20423;49.448;9.056;2023-11-19T15:47:29;10.70;99.90
34147;DHT22;20423;49.448;9.056;2023-11-19T15:49:55;10.70;99.90
34147;DHT22;20423;49.448;9.056;2023-11-19T15:52:21;10.60;99.90
34147;DHT22;20423;49.448;9.056;2023-11-19T15:54:46;10.40;99.90
34147;DHT22;20423;49.448;9.056;2023-11-19T15:57:13;10.20;99.90
34147;DHT22;20423;49.448;9.056;2023-11-19T15:59:54;10.10;99.90
34147;DHT22;20423;49.448;9.056;2023-11-19T16:02:20;10.30;99.90
34147;DHT22;20423;49.448;9.056;2023-11-19T16:04:45;10.40;99.90
34147;DHT22;20423;49.448;9.056;2023-11-19T16:07:16;10.50;99.90
34147;DHT22;20423;49.448;9.056;2023-11-19T16:09:43;10.50;99.90
34147;DHT22;20423;49.448;9.056;2023-11-19T16:12:09;10.50;99.90